EST,Max TemperatureF,Mean TemperatureF,Min TemperatureF,Max Dew PointF,MeanDew PointF,Min DewpointF,Max Humidity, Mean Humidity, Min Humidity, Max Sea Level PressureIn, Mean Sea Level PressureIn, Min Sea Level PressureIn, Max VisibilityMiles, Mean VisibilityMiles, Min VisibilityMiles, Max Wind SpeedMPH, Mean Wind SpeedMPH, Max Gust SpeedMPH,PrecipitationIn, CloudCover, Events, WindDirDegrees
2012-1-1,66,52,37,56,42,29,94,75,40,30.20,30.13,30.03,10,10,6,21,4,29,0.00,3,,237
2012-1-2,45,38,28,28,14,8,51,38,24,30.28,30.19,30.10,10,10,10,26,15,39,0.02,1,,305
2012-1-3,33,27,21,14,8,4,59,46,32,30.48,30.38,30.29,10,10,10,22,14,33,0.00,1,Snow,304
2012-1-4,51,35,19,18,13,9,70,45,20,30.42,30.32,30.21,10,10,10,12,5,,0.00,1,,250
2012-1-5,59,44,30,34,27,19,87,56,23,30.24,30.18,30.14,10,10,10,14,5,,0.00,0,,288
2012-1-6,65,48,30,34,29,26,88,56,22,30.19,30.11,30.06,10,10,10,14,3,,0.00,0,,279
2012-1-7,65,54,44,57,50,35,100,86,59,30.15,30.11,30.04,10,6,0,17,5,26,0.35,5,Fog-Rain-Thunderstorm,284
2012-1-8,59,52,44,59,51,45,100,99,93,30.23,30.17,30.13,10,2,0,7,1,,0.06,6,Fog-Rain,203
2012-1-9,68,60,51,61,55,52,100,96,64,30.20,30.15,30.08,10,5,0,13,2,17,0.01,7,Fog-Rain-Thunderstorm,231
2012-1-10,61,57,53,60,55,52,100,99,80,30.09,30.03,29.86,10,4,0,12,1,,0.14,6,Fog-Rain,158
2012-1-11,62,55,48,58,53,42,100,89,67,29.83,29.67,29.55,10,9,3,22,12,33,0.13,8,Rain-Thunderstorm,160
2012-1-12,56,42,28,46,40,19,92,75,56,29.95,29.73,29.61,10,10,10,26,11,39,0.06,7,Rain,247
2012-1-13,36,30,24,19,16,14,67,59,45,30.23,30.11,29.97,10,10,10,23,15,32,0.00,4,,277
2012-1-14,51,37,23,22,18,13,75,49,27,30.32,30.22,30.13,10,10,10,14,7,,0.00,0,,242
2012-1-15,52,42,32,26,23,18,72,51,26,30.48,30.40,30.20,10,10,10,10,6,,0.00,0,,300
2012-1-16,55,42,30,32,28,24,78,55,38,30.52,30.42,30.32,10,10,10,12,4,,0.00,6,,109
2012-1-17,62,53,44,59,52,34,100,89,57,30.30,30.09,29.97,10,9,2,29,6,36,0.33,8,Rain-Thunderstorm,206
2012-1-18,53,42,32,52,34,21,94,72,44,30.16,30.08,30.00,10,10,7,21,12,28,0.04,3,Rain,308
2012-1-19,55,41,27,31,25,22,83,52,29,30.23,30.13,30.05,10,10,7,31,5,43,0.00,3,,130
2012-1-20,54,50,45,54,49,29,100,91,42,30.10,30.02,29.99,10,5,1,9,4,,0.16,8,Rain,101
2012-1-21,63,56,49,63,57,48,100,95,81,30.06,29.94,29.87,10,8,0,31,6,39,0.65,7,Fog-Rain-Thunderstorm,238
2012-1-22,53,48,42,54,47,43,100,99,93,30.18,30.12,30.06,10,3,0,15,4,21,0.06,7,Fog-Rain,92
2012-1-23,52,47,42,52,46,43,100,99,93,30.11,30.05,29.99,10,3,0,16,11,21,0.60,8,Fog-Rain,93
2012-1-24,62,52,41,52,45,33,100,94,35,30.32,30.13,30.07,10,3,0,10,5,,0.01,2,Fog,298
2012-1-25,66,50,34,47,40,32,94,63,40,30.28,30.19,30.13,10,10,10,12,4,,0.00,3,,97
2012-1-26,69,62,54,62,58,46,100,93,64,30.13,29.88,29.71,10,8,1,18,9,24,0.25,7,Rain,148
2012-1-27,60,50,39,56,47,34,94,82,48,30.07,29.83,29.69,10,9,3,21,12,28,0.15,6,Rain,273
2012-1-28,61,46,32,40,31,14,95,63,30,30.31,30.18,30.06,10,10,10,16,6,21,0.00,1,,299
2012-1-29,54,40,27,23,16,8,70,44,16,30.45,30.38,30.31,10,10,10,14,5,22,0.00,0,,296
2012-1-30,61,44,28,26,22,16,80,48,17,30.46,30.40,30.36,10,10,10,9,1,,0.00,0,,232
2012-1-31,65,49,33,36,28,22,78,50,19,30.42,30.35,30.28,10,10,10,10,2,,0.00,3,,158